createdAt,value
2019-03-18T00:00:53.424Z,1002.15
2019-03-18T00:01:53.420Z,1002.14
2019-03-18T00:02:53.405Z,1002.16
2019-03-18T00:03:53.392Z,1002.17
2019-03-18T00:04:53.410Z,1002.16
2019-03-18T00:05:53.373Z,1002.18
2019-03-18T00:06:53.364Z,1002.16
2019-03-18T00:07:53.356Z,1002.17
2019-03-18T00:08:53.350Z,1002.15
2019-03-18T00:09:53.343Z,1002.16
2019-03-18T00:10:53.325Z,1002.20
2019-03-18T00:11:53.305Z,1002.20
2019-03-18T00:12:53.301Z,1002.24
2019-03-18T00:13:53.291Z,1002.25
2019-03-18T00:15:01.205Z,1002.20
2019-03-18T00:15:54.268Z,1002.22
2019-03-18T00:16:53.259Z,1002.20
2019-03-18T00:17:53.242Z,1002.23
2019-03-18T00:18:53.234Z,1002.20
2019-03-18T00:19:53.242Z,1002.19
2019-03-18T00:20:53.222Z,1002.19
2019-03-18T00:21:53.202Z,1002.20
2019-03-18T00:22:53.194Z,1002.25
2019-03-18T00:23:53.178Z,1002.20
2019-03-18T00:24:53.188Z,1002.17
2019-03-18T00:25:53.160Z,1002.15
2019-03-18T00:26:53.152Z,1002.13
2019-03-18T00:27:53.142Z,1002.17
2019-03-18T00:28:53.140Z,1002.08
2019-03-18T00:29:53.140Z,1002.11
2019-03-18T00:30:53.108Z,1002.12
2019-03-18T00:31:53.103Z,1002.07
2019-03-18T00:32:53.086Z,1002.15
2019-03-18T00:33:53.075Z,1002.19
2019-03-18T00:34:53.083Z,1002.22
2019-03-18T00:35:53.082Z,1002.18
2019-03-18T00:36:53.044Z,1002.21
2019-03-18T00:37:53.035Z,1002.20
2019-03-18T00:38:53.024Z,1002.22
2019-03-18T00:39:53.029Z,1002.16
2019-03-18T00:40:53.007Z,1002.17
2019-03-18T00:41:52.992Z,1002.15
2019-03-18T00:42:52.984Z,1002.16
2019-03-18T00:43:52.973Z,1002.17
2019-03-18T00:44:52.974Z,1002.23
2019-03-18T00:45:52.953Z,1002.19
2019-03-18T00:46:52.943Z,1002.26
2019-03-18T00:47:52.930Z,1002.31
2019-03-18T00:48:52.924Z,1002.29
2019-03-18T00:49:52.925Z,1002.28
2019-03-18T00:50:52.894Z,1002.29
2019-03-18T00:51:52.882Z,1002.28
2019-03-18T00:52:52.877Z,1002.31
2019-03-18T00:53:52.876Z,1002.34
2019-03-18T00:54:52.871Z,1002.35
2019-03-18T00:55:52.844Z,1002.36
2019-03-18T00:56:52.832Z,1002.39
2019-03-18T00:57:52.826Z,1002.43
2019-03-18T00:58:52.824Z,1002.42
2019-03-18T00:59:52.811Z,1002.46
2019-03-18T01:00:52.788Z,1002.46
2019-03-18T01:01:52.786Z,1002.59
2019-03-18T01:02:52.769Z,1002.47
2019-03-18T01:03:52.760Z,1002.51
2019-03-18T01:04:52.764Z,1002.55
2019-03-18T01:05:52.740Z,1002.62
2019-03-18T01:06:52.733Z,1002.55
2019-03-18T01:07:52.718Z,1002.59
2019-03-18T01:08:52.707Z,1002.60
2019-03-18T01:09:52.711Z,1002.56
2019-03-18T01:10:52.684Z,1002.53
2019-03-18T01:11:52.677Z,1002.50
2019-03-18T01:12:52.670Z,1002.50
2019-03-18T01:13:52.650Z,1002.51
2019-03-18T01:14:52.658Z,1002.51
2019-03-18T01:15:52.635Z,1002.56
2019-03-18T01:16:52.627Z,1002.52
2019-03-18T01:17:52.610Z,1002.56
2019-03-18T01:18:52.608Z,1002.54
2019-03-18T01:19:52.602Z,1002.58
2019-03-18T01:20:52.579Z,1002.56
2019-03-18T01:21:52.566Z,1002.63
2019-03-18T01:22:52.562Z,1002.63
2019-03-18T01:23:52.551Z,1002.62
2019-03-18T01:24:52.634Z,1002.65
2019-03-18T01:25:52.664Z,1002.64
2019-03-18T01:26:52.516Z,1002.64
2019-03-18T01:27:52.509Z,1002.63
2019-03-18T01:28:52.505Z,1002.67
2019-03-18T01:29:52.513Z,1002.65
2019-03-18T01:30:52.471Z,1002.61
2019-03-18T01:31:52.462Z,1002.66
2019-03-18T01:32:52.453Z,1002.69
2019-03-18T01:33:52.445Z,1002.69
2019-03-18T01:34:52.432Z,1002.70
2019-03-18T01:35:52.439Z,1002.65
2019-03-18T01:36:52.415Z,1002.73
2019-03-18T01:37:52.395Z,1002.67
2019-03-18T01:38:52.386Z,1002.65
2019-03-18T01:39:52.382Z,1002.64
2019-03-18T01:40:52.389Z,1002.65
2019-03-18T01:41:52.359Z,1002.65
2019-03-18T01:42:52.347Z,1002.62
2019-03-18T01:43:52.332Z,1002.63
2019-03-18T01:44:52.329Z,1002.64
2019-03-18T01:45:52.742Z,1002.64
2019-03-18T01:46:52.306Z,1002.67
2019-03-18T01:47:52.299Z,1002.68
2019-03-18T01:48:52.278Z,1002.60
2019-03-18T01:49:52.274Z,1002.62
2019-03-18T01:50:52.276Z,1002.57
2019-03-18T01:51:52.252Z,1002.57
2019-03-18T01:52:52.241Z,1002.52
2019-03-18T01:53:52.238Z,1002.57
2019-03-18T01:54:52.226Z,1002.61
2019-03-18T01:55:52.224Z,1002.62
2019-03-18T01:56:52.203Z,1002.61
2019-03-18T01:57:52.188Z,1002.58
2019-03-18T01:58:52.177Z,1002.59
2019-03-18T01:59:52.166Z,1002.53
2019-03-18T02:00:52.171Z,1002.53
2019-03-18T02:01:52.147Z,1002.50
2019-03-18T02:02:52.159Z,1002.51
2019-03-18T02:03:52.125Z,1002.55
2019-03-18T02:04:52.132Z,1002.55
2019-03-18T02:05:52.127Z,1002.57
2019-03-18T02:06:52.096Z,1002.66
2019-03-18T02:07:52.085Z,1002.57
2019-03-18T02:08:52.075Z,1002.59
2019-03-18T02:09:52.061Z,1002.59
2019-03-18T02:10:52.078Z,1002.59
2019-03-18T02:11:52.043Z,1002.68
2019-03-18T02:12:52.027Z,1002.58
2019-03-18T02:13:52.025Z,1002.60
2019-03-18T02:14:52.006Z,1002.61
2019-03-18T02:15:53.644Z,1002.59
2019-03-18T02:16:51.984Z,1002.52
2019-03-18T02:17:51.977Z,1002.60
2019-03-18T02:18:51.963Z,1002.51
2019-03-18T02:19:51.957Z,1002.59
2019-03-18T02:20:51.958Z,1002.54
2019-03-18T02:21:51.932Z,1002.66
2019-03-18T02:22:51.927Z,1002.56
2019-03-18T02:23:51.928Z,1002.60
2019-03-18T02:24:51.909Z,1002.61
2019-03-18T02:25:51.911Z,1002.56
2019-03-18T02:26:51.880Z,1002.54
2019-03-18T02:27:51.893Z,1002.54
2019-03-18T02:28:51.861Z,1002.57
2019-03-18T02:29:51.851Z,1002.61
2019-03-18T02:30:51.854Z,1002.58
2019-03-18T02:31:51.826Z,1002.60
2019-03-18T02:32:51.820Z,1002.60
2019-03-18T02:33:51.810Z,1002.60
2019-03-18T02:34:51.796Z,1002.56
2019-03-18T02:35:51.799Z,1002.66
2019-03-18T02:36:51.780Z,1002.63
2019-03-18T02:37:51.767Z,1002.72
2019-03-18T02:38:51.760Z,1002.66
2019-03-18T02:39:51.747Z,1002.62
2019-03-18T02:40:51.755Z,1002.71
2019-03-18T02:41:51.725Z,1002.69
2019-03-18T02:42:51.713Z,1002.69
2019-03-18T02:43:51.699Z,1002.63
2019-03-18T02:44:51.717Z,1002.58
2019-03-18T02:45:51.695Z,1002.62
2019-03-18T02:46:51.669Z,1002.65
2019-03-18T02:47:51.660Z,1002.62
2019-03-18T02:48:51.647Z,1002.67
2019-03-18T02:49:51.643Z,1002.61
2019-03-18T02:50:51.650Z,1002.62
2019-03-18T02:51:53.217Z,1002.68
2019-03-18T02:52:51.606Z,1002.66
2019-03-18T02:53:51.593Z,1002.69
2019-03-18T02:54:51.610Z,1002.67
2019-03-18T02:55:51.586Z,1002.67
2019-03-18T02:56:51.602Z,1002.68
2019-03-18T02:57:51.548Z,1002.64
2019-03-18T02:58:51.542Z,1002.67
2019-03-18T02:59:51.535Z,1002.66
2019-03-18T03:00:51.537Z,1002.68
2019-03-18T03:01:51.522Z,1002.57
2019-03-18T03:02:51.504Z,1002.68
2019-03-18T03:03:51.505Z,1002.66
2019-03-18T03:04:51.483Z,1002.62
2019-03-18T03:05:51.485Z,1002.60
2019-03-18T03:06:51.461Z,1002.57
2019-03-18T03:07:51.443Z,1002.60
2019-03-18T03:08:51.432Z,1002.60
2019-03-18T03:09:51.424Z,1002.64
2019-03-18T03:10:51.427Z,1002.63
2019-03-18T03:11:51.405Z,1002.59
2019-03-18T03:12:51.394Z,1002.63
2019-03-18T03:13:51.389Z,1002.62
2019-03-18T03:14:51.376Z,1002.62
2019-03-18T03:15:51.385Z,1002.54
2019-03-18T03:16:51.354Z,1002.60
2019-03-18T03:17:51.338Z,1002.61
2019-03-18T03:18:51.328Z,1002.59
2019-03-18T03:19:51.319Z,1002.55
2019-03-18T03:20:51.333Z,1002.65
2019-03-18T03:21:51.295Z,1002.59
2019-03-18T03:22:51.295Z,1002.61
2019-03-18T03:23:51.277Z,1002.66
2019-03-18T03:24:51.267Z,1002.63
2019-03-18T03:25:51.270Z,1002.71
2019-03-18T03:26:51.241Z,1002.69
2019-03-18T03:27:51.239Z,1002.68
2019-03-18T03:28:51.227Z,1002.68
2019-03-18T03:29:51.214Z,1002.71
2019-03-18T03:30:51.228Z,1002.71
2019-03-18T03:31:51.187Z,1002.76
2019-03-18T03:32:51.391Z,1002.75
2019-03-18T03:33:51.167Z,1002.80
2019-03-18T03:34:51.159Z,1002.82
2019-03-18T03:35:51.163Z,1002.84
2019-03-18T03:36:51.138Z,1002.80
2019-03-18T03:37:51.146Z,1002.80
2019-03-18T03:38:51.114Z,1002.78
2019-03-18T03:39:51.102Z,1002.76
2019-03-18T03:40:51.136Z,1002.72
2019-03-18T03:41:51.097Z,1002.71
2019-03-18T03:42:51.085Z,1002.74
2019-03-18T03:43:51.073Z,1002.80
2019-03-18T03:44:51.052Z,1002.70
2019-03-18T03:45:51.054Z,1002.79
2019-03-18T03:46:51.035Z,1002.79
2019-03-18T03:47:51.119Z,1002.76
2019-03-18T03:48:51.101Z,1002.78
2019-03-18T03:49:51.001Z,1002.85
2019-03-18T03:50:51.033Z,1002.77
2019-03-18T03:51:50.978Z,1002.78
2019-03-18T03:52:50.969Z,1002.72
2019-03-18T03:53:50.973Z,1002.72
2019-03-18T03:54:50.959Z,1002.87
2019-03-18T03:55:50.934Z,1002.71
2019-03-18T03:56:50.940Z,1002.86
2019-03-18T03:57:50.913Z,1002.83
2019-03-18T03:58:50.907Z,1002.82
2019-03-18T03:59:50.894Z,1002.86
2019-03-18T04:00:50.878Z,1002.74
2019-03-18T04:01:50.886Z,1002.85
2019-03-18T04:02:50.865Z,1002.88
2019-03-18T04:03:50.849Z,1002.88
2019-03-18T04:04:50.844Z,1002.88
2019-03-18T04:05:50.845Z,1002.88
2019-03-18T04:06:50.835Z,1002.96
2019-03-18T04:07:50.802Z,1002.88
2019-03-18T04:08:50.799Z,1002.89
2019-03-18T04:09:50.790Z,1002.98
2019-03-18T04:10:50.781Z,1002.87
2019-03-18T04:11:50.784Z,1003.00
2019-03-18T04:12:50.754Z,1002.99
2019-03-18T04:13:50.740Z,1003.01
2019-03-18T04:14:50.731Z,1002.97
2019-03-18T04:15:50.724Z,1003.04
2019-03-18T04:17:01.723Z,1003.02
2019-03-18T04:17:51.698Z,1002.98
2019-03-18T04:18:50.692Z,1002.97
2019-03-18T04:19:50.680Z,1003.01
2019-03-18T04:20:50.669Z,1003.05
2019-03-18T04:21:51.142Z,1003.03
2019-03-18T04:22:50.650Z,1003.07
2019-03-18T04:23:50.637Z,1003.08
2019-03-18T04:24:50.631Z,1003.13
2019-03-18T04:25:50.614Z,1003.07
2019-03-18T04:26:50.641Z,1003.09
2019-03-18T04:27:50.738Z,1003.12
2019-03-18T04:28:50.586Z,1003.11
2019-03-18T04:29:50.580Z,1003.20
2019-03-18T04:30:50.569Z,1003.15
2019-03-18T04:31:50.565Z,1003.16
2019-03-18T04:32:50.550Z,1003.06
2019-03-18T04:33:50.538Z,1003.16
2019-03-18T04:34:50.521Z,1003.22
2019-03-18T04:35:50.510Z,1003.14
2019-03-18T04:36:50.512Z,1003.24
2019-03-18T04:37:50.487Z,1003.30
2019-03-18T04:38:50.479Z,1003.29
2019-03-18T04:39:50.512Z,1003.24
2019-03-18T04:40:50.460Z,1003.27
2019-03-18T04:41:50.451Z,1003.26
2019-03-18T04:42:50.459Z,1003.28
2019-03-18T04:43:50.426Z,1003.28
2019-03-18T04:44:50.412Z,1003.32
2019-03-18T04:45:50.406Z,1003.34
2019-03-18T04:46:50.388Z,1003.32
2019-03-18T04:47:50.402Z,1003.39
2019-03-18T04:48:50.375Z,1003.36
2019-03-18T04:49:50.364Z,1003.38
2019-03-18T04:50:50.350Z,1003.40
2019-03-18T04:51:50.335Z,1003.41
2019-03-18T04:52:50.415Z,1003.35
2019-03-18T04:53:50.317Z,1003.37
2019-03-18T04:54:50.311Z,1003.45
2019-03-18T04:55:50.297Z,1003.49
2019-03-18T04:56:50.299Z,1003.41
2019-03-18T04:57:50.286Z,1003.43
2019-03-18T04:58:50.268Z,1003.48
2019-03-18T04:59:50.252Z,1003.47
2019-03-18T05:00:50.242Z,1003.49
2019-03-18T05:01:50.256Z,1003.41
2019-03-18T05:02:50.240Z,1003.41
2019-03-18T05:03:50.213Z,1003.51
2019-03-18T05:04:50.200Z,1003.47
2019-03-18T05:05:50.197Z,1003.47
2019-03-18T05:06:50.178Z,1003.52
2019-03-18T05:07:50.186Z,1003.50
2019-03-18T05:08:50.160Z,1003.45
2019-03-18T05:09:50.154Z,1003.49
2019-03-18T05:10:50.139Z,1003.46
2019-03-18T05:11:50.155Z,1003.55
2019-03-18T05:12:50.129Z,1003.51
2019-03-18T05:13:50.142Z,1003.47
2019-03-18T05:14:50.098Z,1003.53
2019-03-18T05:15:50.088Z,1003.51
2019-03-18T05:16:50.077Z,1003.50
2019-03-18T05:17:50.077Z,1003.55
2019-03-18T05:18:50.054Z,1003.49
2019-03-18T05:19:50.046Z,1003.53
2019-03-18T05:20:50.034Z,1003.52
2019-03-18T05:21:50.035Z,1003.58
2019-03-18T05:22:50.023Z,1003.61
2019-03-18T05:23:50.004Z,1003.65
2019-03-18T05:24:50.004Z,1003.63
2019-03-18T05:25:49.980Z,1003.61
2019-03-18T05:26:49.974Z,1003.64
2019-03-18T05:27:49.973Z,1003.72
2019-03-18T05:28:49.947Z,1003.71
2019-03-18T05:29:49.951Z,1003.71
2019-03-18T05:30:49.941Z,1003.78
2019-03-18T05:31:49.920Z,1003.75
2019-03-18T05:32:49.941Z,1003.74
2019-03-18T05:33:49.902Z,1003.79
2019-03-18T05:34:49.887Z,1003.82
2019-03-18T05:35:49.877Z,1003.81
2019-03-18T05:36:49.864Z,1003.76
2019-03-18T05:37:49.872Z,1003.89
2019-03-18T05:38:49.854Z,1003.82
2019-03-18T05:39:49.834Z,1003.81
2019-03-18T05:40:49.826Z,1003.82
2019-03-18T05:41:49.901Z,1003.81
2019-03-18T05:42:49.820Z,1003.82
2019-03-18T05:43:49.788Z,1003.82
2019-03-18T05:44:49.782Z,1003.82
2019-03-18T05:45:49.772Z,1003.89
2019-03-18T05:46:49.760Z,1003.84
2019-03-18T05:47:49.765Z,1003.85
2019-03-18T05:48:49.738Z,1003.82
2019-03-18T05:49:49.729Z,1003.97
2019-03-18T05:50:49.722Z,1003.89
2019-03-18T05:51:49.704Z,1003.93
2019-03-18T05:52:49.711Z,1003.97
2019-03-18T05:53:49.686Z,1003.99
2019-03-18T05:54:49.689Z,1003.98
2019-03-18T05:55:49.863Z,1003.99
2019-03-18T05:56:49.660Z,1004.00
2019-03-18T05:57:49.664Z,1004.05
2019-03-18T05:58:49.632Z,1004.05
2019-03-18T05:59:49.621Z,1004.06
2019-03-18T06:00:49.616Z,1004.10
2019-03-18T06:01:49.603Z,1004.06
2019-03-18T06:02:49.613Z,1004.10
2019-03-18T06:03:49.585Z,1004.08
2019-03-18T06:04:49.583Z,1004.08
2019-03-18T06:05:49.560Z,1004.10
2019-03-18T06:06:49.553Z,1004.10
2019-03-18T06:07:49.553Z,1004.12
2019-03-18T06:08:49.530Z,1003.97
2019-03-18T06:09:49.523Z,1004.03
2019-03-18T06:10:49.507Z,1004.01
2019-03-18T06:11:49.501Z,1003.92
2019-03-18T06:12:49.504Z,1003.92
2019-03-18T06:13:49.475Z,1003.96
2019-03-18T06:14:49.465Z,1003.92
2019-03-18T06:15:49.453Z,1003.98
2019-03-18T06:16:49.448Z,1004.05
2019-03-18T06:17:52.791Z,1003.95
2019-03-18T06:18:49.431Z,1004.01
2019-03-18T06:19:49.428Z,1003.94
2019-03-18T06:20:49.399Z,1003.94
2019-03-18T06:21:49.391Z,1003.99
2019-03-18T06:22:49.395Z,1003.94
2019-03-18T06:23:49.372Z,1004.05
2019-03-18T06:24:49.355Z,1004.00
2019-03-18T06:25:49.341Z,1004.09
2019-03-18T06:26:49.333Z,1004.02
2019-03-18T06:27:49.435Z,1004.04
2019-03-18T06:28:49.314Z,1004.02
2019-03-18T06:29:49.306Z,1004.06
2019-03-18T06:30:49.297Z,1003.98
2019-03-18T06:31:49.285Z,1004.00
2019-03-18T06:32:49.291Z,1003.93
2019-03-18T06:33:49.263Z,1003.98
2019-03-18T06:34:49.252Z,1003.95
2019-03-18T06:35:49.243Z,1004.04
2019-03-18T06:36:49.228Z,1003.97
2019-03-18T06:37:49.232Z,1004.07
2019-03-18T06:38:49.213Z,1004.12
2019-03-18T06:39:49.204Z,1004.09
2019-03-18T06:40:49.190Z,1004.13
2019-03-18T06:41:49.181Z,1004.16
2019-03-18T06:42:49.184Z,1004.10
2019-03-18T06:43:49.159Z,1004.21
2019-03-18T06:44:49.146Z,1004.24
2019-03-18T06:45:49.138Z,1004.29
2019-03-18T06:46:49.124Z,1004.29
2019-03-18T06:47:49.156Z,1004.31
2019-03-18T06:48:49.104Z,1004.26
2019-03-18T06:49:49.093Z,1004.27
2019-03-18T06:50:49.080Z,1004.37
2019-03-18T06:51:49.074Z,1004.40
2019-03-18T06:52:49.063Z,1004.41
2019-03-18T06:53:49.063Z,1004.46
2019-03-18T06:54:49.040Z,1004.46
2019-03-18T06:55:49.074Z,1004.48
2019-03-18T06:56:49.025Z,1004.50
2019-03-18T06:57:49.017Z,1004.37
2019-03-18T06:58:49.016Z,1004.51
2019-03-18T06:59:48.995Z,1004.50
2019-03-18T07:00:48.979Z,1004.55
2019-03-18T07:01:48.970Z,1004.53
2019-03-18T07:02:48.956Z,1004.50
2019-03-18T07:03:48.961Z,1004.56
2019-03-18T07:04:48.932Z,1004.59
2019-03-18T07:05:48.929Z,1004.51
2019-03-18T07:06:48.913Z,1004.55
2019-03-18T07:07:48.903Z,1004.52
2019-03-18T07:08:48.918Z,1004.48
2019-03-18T07:09:48.886Z,1004.55
2019-03-18T07:10:48.875Z,1004.64
2019-03-18T07:11:48.859Z,1004.54
2019-03-18T07:12:48.853Z,1004.57
2019-03-18T07:13:48.854Z,1004.61
2019-03-18T07:14:48.832Z,1004.61
2019-03-18T07:15:48.837Z,1004.60
2019-03-18T07:16:48.807Z,1004.65
2019-03-18T07:17:48.798Z,1004.66
2019-03-18T07:18:48.854Z,1004.63
2019-03-18T07:19:48.777Z,1004.61
2019-03-18T07:20:48.776Z,1004.66
2019-03-18T07:21:48.757Z,1004.74
2019-03-18T07:22:48.749Z,1004.74
2019-03-18T07:23:48.750Z,1004.76
2019-03-18T07:24:48.720Z,1004.72
2019-03-18T07:25:48.712Z,1004.77
2019-03-18T07:26:48.700Z,1004.75
2019-03-18T07:27:48.690Z,1004.87
2019-03-18T07:28:48.693Z,1004.84
2019-03-18T07:29:48.667Z,1004.81
2019-03-18T07:30:48.664Z,1004.84
2019-03-18T07:31:48.650Z,1004.80
2019-03-18T07:32:48.663Z,1004.90
2019-03-18T07:33:48.639Z,1004.89
2019-03-18T07:34:48.623Z,1004.79
2019-03-18T07:35:48.609Z,1004.83
2019-03-18T07:36:48.601Z,1004.81
2019-03-18T07:37:48.584Z,1004.85
2019-03-18T07:38:48.598Z,1004.79
2019-03-18T07:39:48.569Z,1004.72
2019-03-18T07:40:48.552Z,1004.73
2019-03-18T07:41:48.552Z,1004.79
2019-03-18T07:42:48.539Z,1004.72
2019-03-18T07:43:48.538Z,1004.81
2019-03-18T07:44:48.516Z,1004.76
2019-03-18T07:45:48.508Z,1004.83
2019-03-18T07:46:48.579Z,1004.85
2019-03-18T07:47:48.481Z,1004.87
2019-03-18T07:48:48.488Z,1004.82
2019-03-18T07:49:48.463Z,1004.85
2019-03-18T07:50:48.447Z,1004.90
2019-03-18T07:51:48.440Z,1004.97
2019-03-18T07:52:48.433Z,1004.93
2019-03-18T07:53:48.415Z,1004.95
2019-03-18T07:54:48.427Z,1004.98
2019-03-18T07:55:48.395Z,1004.93
2019-03-18T07:56:48.388Z,1005.00
2019-03-18T07:57:48.383Z,1005.11
2019-03-18T07:58:48.367Z,1005.09
2019-03-18T07:59:48.376Z,1005.08
2019-03-18T08:00:48.372Z,1005.16
2019-03-18T08:01:48.379Z,1005.11
2019-03-18T08:02:48.321Z,1005.21
2019-03-18T08:03:48.319Z,1004.95
2019-03-18T08:04:48.323Z,1005.19
2019-03-18T08:05:48.354Z,1005.04
2019-03-18T08:06:48.297Z,1005.12
2019-03-18T08:07:48.275Z,1005.02
2019-03-18T08:08:48.263Z,1005.02
2019-03-18T08:09:48.281Z,1005.02
2019-03-18T08:10:48.238Z,1004.94
2019-03-18T08:11:48.227Z,1005.00
2019-03-18T08:12:48.260Z,1004.99
2019-03-18T08:13:48.203Z,1004.88
2019-03-18T08:14:48.225Z,1004.96
2019-03-18T08:15:48.189Z,1004.98
2019-03-18T08:16:48.176Z,1005.07
2019-03-18T08:17:48.167Z,1004.96
2019-03-18T08:18:48.154Z,1004.99
2019-03-18T08:19:48.155Z,1005.07
2019-03-18T08:20:48.168Z,1005.06
2019-03-18T08:21:48.124Z,1005.05
2019-03-18T08:22:48.119Z,1004.99
2019-03-18T08:23:48.101Z,1005.03
2019-03-18T08:24:48.110Z,1005.00
2019-03-18T08:25:48.087Z,1005.04
2019-03-18T08:26:48.068Z,1005.11
2019-03-18T08:27:48.063Z,1005.06
2019-03-18T08:28:48.042Z,1005.21
2019-03-18T08:29:48.054Z,1005.19
2019-03-18T08:30:48.027Z,1005.15
2019-03-18T08:31:48.018Z,1005.20
2019-03-18T08:32:48.011Z,1005.22
2019-03-18T08:33:47.997Z,1005.24
2019-03-18T08:34:48.003Z,1005.29
2019-03-18T08:35:47.975Z,1005.30
2019-03-18T08:36:47.962Z,1005.24
2019-03-18T08:37:47.981Z,1005.29
2019-03-18T08:38:47.941Z,1005.24
2019-03-18T08:39:47.945Z,1005.33
2019-03-18T08:40:47.928Z,1005.27
2019-03-18T08:41:47.908Z,1005.32
2019-03-18T08:42:47.901Z,1005.34
2019-03-18T08:43:47.895Z,1005.19
2019-03-18T08:44:47.894Z,1005.33
2019-03-18T08:45:47.867Z,1005.39
2019-03-18T08:46:47.861Z,1005.36
2019-03-18T08:47:47.847Z,1005.30
2019-03-18T08:48:55.724Z,1005.40
2019-03-18T08:49:48.874Z,1005.30
2019-03-18T08:50:47.819Z,1005.33
2019-03-18T08:51:47.808Z,1005.36
2019-03-18T08:52:47.793Z,1005.40
2019-03-18T08:53:47.787Z,1005.41
2019-03-18T08:54:47.801Z,1005.50
2019-03-18T08:55:47.763Z,1005.39
2019-03-18T08:56:47.777Z,1005.50
2019-03-18T08:57:47.743Z,1005.54
2019-03-18T08:58:47.729Z,1005.49
2019-03-18T08:59:47.737Z,1005.53
2019-03-18T09:00:47.727Z,1005.54
2019-03-18T09:01:47.703Z,1005.62
2019-03-18T09:02:47.690Z,1005.51
2019-03-18T09:03:47.766Z,1005.51
2019-03-18T09:04:47.679Z,1005.58
2019-03-18T09:05:47.681Z,1005.58
2019-03-18T09:06:47.651Z,1005.52
2019-03-18T09:07:47.638Z,1005.51
2019-03-18T09:08:47.624Z,1005.48
2019-03-18T09:09:47.623Z,1005.53
2019-03-18T09:10:47.622Z,1005.53
2019-03-18T09:11:47.601Z,1005.59
2019-03-18T09:12:47.586Z,1005.59
2019-03-18T09:13:47.574Z,1005.56
2019-03-18T09:14:47.563Z,1005.62
2019-03-18T09:15:47.574Z,1005.64
2019-03-18T09:16:47.541Z,1005.58
2019-03-18T09:17:47.532Z,1005.64
2019-03-18T09:18:47.524Z,1005.58
2019-03-18T09:19:47.517Z,1005.55
2019-03-18T09:20:47.515Z,1005.57
2019-03-18T09:21:47.489Z,1005.61
2019-03-18T09:22:47.487Z,1005.58
2019-03-18T09:23:47.511Z,1005.65
2019-03-18T09:24:47.456Z,1005.54
2019-03-18T09:25:47.469Z,1005.59
2019-03-18T09:26:47.434Z,1005.52
2019-03-18T09:27:47.437Z,1005.61
2019-03-18T09:28:47.420Z,1005.55
2019-03-18T09:29:47.405Z,1005.55
2019-03-18T09:30:47.418Z,1005.60
2019-03-18T09:31:47.393Z,1005.65
2019-03-18T09:32:47.375Z,1005.64
2019-03-18T09:33:47.361Z,1005.60
2019-03-18T09:34:47.350Z,1005.56
2019-03-18T09:35:47.343Z,1005.58
2019-03-18T09:36:47.349Z,1005.61
2019-03-18T09:37:47.326Z,1005.58
2019-03-18T09:38:47.310Z,1005.56
2019-03-18T09:39:47.306Z,1005.56
2019-03-18T09:40:47.294Z,1005.54
2019-03-18T09:41:47.294Z,1005.55
2019-03-18T09:42:47.291Z,1005.53
2019-03-18T09:43:47.319Z,1005.66
2019-03-18T09:44:47.249Z,1005.60
2019-03-18T09:45:47.242Z,1005.59
2019-03-18T09:46:47.246Z,1005.73
2019-03-18T09:47:47.235Z,1005.81
2019-03-18T09:48:47.201Z,1005.68
2019-03-18T09:49:47.197Z,1005.75
2019-03-18T09:50:47.184Z,1005.88
2019-03-18T09:51:47.192Z,1005.75
2019-03-18T09:52:47.168Z,1005.79
2019-03-18T09:53:47.155Z,1005.84
2019-03-18T09:54:47.142Z,1005.82
2019-03-18T09:55:47.131Z,1005.86
2019-03-18T09:56:47.144Z,1005.74
2019-03-18T09:57:47.115Z,1005.78
2019-03-18T09:58:47.098Z,1005.81
2019-03-18T09:59:47.105Z,1005.85
2019-03-18T10:00:47.077Z,1005.87
2019-03-18T10:01:47.084Z,1005.86
2019-03-18T10:02:47.064Z,1005.79
2019-03-18T10:03:47.048Z,1005.85
2019-03-18T10:04:47.036Z,1005.91
2019-03-18T10:05:47.831Z,1005.92
2019-03-18T10:06:48.382Z,1005.87
2019-03-18T10:07:47.007Z,1005.97
2019-03-18T10:08:46.999Z,1006.02
2019-03-18T10:09:46.983Z,1005.98
2019-03-18T10:10:46.977Z,1006.03
2019-03-18T10:11:46.989Z,1005.99
2019-03-18T10:12:46.953Z,1005.98
2019-03-18T10:13:46.942Z,1005.90
2019-03-18T10:14:46.932Z,1005.97
2019-03-18T10:15:46.920Z,1005.98
2019-03-18T10:16:46.937Z,1006.01
2019-03-18T10:17:46.902Z,1005.99
2019-03-18T10:18:46.894Z,1006.06
2019-03-18T10:19:46.890Z,1006.14
2019-03-18T10:20:46.870Z,1006.16
2019-03-18T10:21:46.870Z,1006.21
2019-03-18T10:22:46.846Z,1006.12
2019-03-18T10:23:46.887Z,1006.14
2019-03-18T10:24:46.830Z,1006.18
2019-03-18T10:25:46.816Z,1006.19
2019-03-18T10:26:46.822Z,1006.21
2019-03-18T10:27:46.802Z,1006.20
2019-03-18T10:28:46.786Z,1006.20
2019-03-18T10:29:46.769Z,1006.15
2019-03-18T10:30:46.763Z,1006.24
2019-03-18T10:31:46.771Z,1006.19
2019-03-18T10:32:46.740Z,1006.35
2019-03-18T10:33:46.734Z,1006.27
2019-03-18T10:34:46.726Z,1006.34
2019-03-18T10:35:46.710Z,1006.13
2019-03-18T10:36:46.736Z,1006.25
2019-03-18T10:37:46.697Z,1006.18
2019-03-18T10:38:46.768Z,1006.21
2019-03-18T10:39:46.736Z,1006.26
2019-03-18T10:40:46.747Z,1006.23
2019-03-18T10:41:46.687Z,1006.27
2019-03-18T10:42:46.671Z,1006.26
2019-03-18T10:43:46.631Z,1006.29
2019-03-18T10:44:46.618Z,1006.19
2019-03-18T10:45:46.616Z,1006.25
2019-03-18T10:46:46.621Z,1006.19
2019-03-18T10:47:46.616Z,1006.29
2019-03-18T10:48:46.593Z,1006.24
2019-03-18T10:49:46.770Z,1006.24
2019-03-18T10:50:46.576Z,1006.30
2019-03-18T10:51:48.244Z,1006.29
2019-03-18T10:52:46.573Z,1006.31
2019-03-18T10:53:46.522Z,1006.34
2019-03-18T10:54:46.509Z,1006.31
2019-03-18T10:55:46.506Z,1006.26
2019-03-18T10:56:46.492Z,1006.30
2019-03-18T10:57:46.510Z,1006.35
2019-03-18T10:58:46.471Z,1006.33
2019-03-18T10:59:46.465Z,1006.34
2019-03-18T11:00:46.452Z,1006.39
2019-03-18T11:01:46.435Z,1006.45
2019-03-18T11:02:46.443Z,1006.50
2019-03-18T11:03:46.417Z,1006.49
2019-03-18T11:04:46.407Z,1006.46
2019-03-18T11:05:46.429Z,1006.52
2019-03-18T11:06:46.388Z,1006.52
2019-03-18T11:07:46.390Z,1006.57
2019-03-18T11:08:46.364Z,1006.50
2019-03-18T11:09:46.356Z,1006.51
2019-03-18T11:10:46.340Z,1006.49
2019-03-18T11:11:46.330Z,1006.54
2019-03-18T11:12:46.339Z,1006.60
2019-03-18T11:13:46.317Z,1006.67
2019-03-18T11:14:46.308Z,1006.72
2019-03-18T11:15:46.294Z,1006.72
2019-03-18T11:16:46.309Z,1006.68
2019-03-18T11:17:46.302Z,1006.70
2019-03-18T11:18:46.256Z,1006.72
2019-03-18T11:19:57.520Z,1006.71
2019-03-18T11:20:47.239Z,1006.72
2019-03-18T11:21:46.229Z,1006.78
2019-03-18T11:22:46.239Z,1006.77
2019-03-18T11:23:46.206Z,1006.71
2019-03-18T11:24:46.236Z,1006.71
2019-03-18T11:25:46.184Z,1006.75
2019-03-18T11:26:46.188Z,1006.66
2019-03-18T11:27:46.176Z,1006.68
2019-03-18T11:28:46.154Z,1006.65
2019-03-18T11:29:46.145Z,1006.55
2019-03-18T11:30:46.156Z,1006.74
2019-03-18T11:31:46.126Z,1006.64
2019-03-18T11:32:46.127Z,1006.63
2019-03-18T11:33:46.103Z,1006.63
2019-03-18T11:34:46.089Z,1006.65
2019-03-18T11:35:46.076Z,1006.65
2019-03-18T11:36:46.067Z,1006.59
2019-03-18T11:37:46.079Z,1006.61
2019-03-18T11:38:46.049Z,1006.66
2019-03-18T11:39:46.041Z,1006.57
2019-03-18T11:40:46.063Z,1006.57
2019-03-18T11:41:46.013Z,1006.48
2019-03-18T11:42:46.027Z,1006.50
2019-03-18T11:43:46.002Z,1006.46
2019-03-18T11:44:45.995Z,1006.47
2019-03-18T11:45:45.974Z,1006.47
2019-03-18T11:46:45.967Z,1006.49
2019-03-18T11:47:45.968Z,1006.51
2019-03-18T11:48:45.971Z,1006.50
2019-03-18T11:49:45.937Z,1006.46
2019-03-18T11:50:45.922Z,1006.55
2019-03-18T11:51:45.919Z,1006.52
2019-03-18T11:52:45.899Z,1006.70
2019-03-18T11:53:45.902Z,1006.61
2019-03-18T11:54:45.877Z,1006.63
2019-03-18T11:55:45.879Z,1006.62
2019-03-18T11:56:45.925Z,1006.58
2019-03-18T11:57:45.848Z,1006.55
2019-03-18T11:58:45.878Z,1006.50
2019-03-18T11:59:46.973Z,1006.55
2019-03-18T12:00:45.854Z,1006.53
2019-03-18T12:01:45.812Z,1006.53
2019-03-18T12:02:45.793Z,1006.52
2019-03-18T12:03:45.803Z,1006.48
2019-03-18T12:04:45.797Z,1006.51
2019-03-18T12:05:45.764Z,1006.48